CLMO2: North Canadian River

                                SHEF ID:       CLMO2     North Canadian River near Calume
STATION TYPE:
Regulating: Stage = 12.00, Flow = 1420

STAGE STAGE(2) RIV-FLOW WTR-TEMP DIS-OXY PH CONDUCT BAT-LOAD
ft ft cfs F mg/l su umho/cm volt
Ccp-Rev Ccp-Rev Ccp-Rev Ccp-Rev Ccp-Rev Ccp-Rev Ccp-Rev Ccp-Rev
(America/Chicago)
08/31 00:00 2.77 ---- 0 75.74 0.74 7.50 1368 12.44
08/31 01:00 2.78 ---- 0 75.13 0.76 7.47 1363 12.50
08/31 02:00 2.78 ---- 0 74.59 0.90 7.45 1336 12.41
08/31 03:00 2.79 ---- 0 74.12 0.63 7.45 1334 12.42
08/31 04:00 2.80 ---- 0 73.72 0.66 7.45 1309 12.40
08/31 05:00 2.80 ---- 0 73.63 0.75 7.44 1283 12.41
08/31 06:00 2.81 ---- 0 73.49 0.60 7.43 1282 12.36
08/31 07:00 2.82 ---- 0 73.63 0.72 7.44 1281 12.46
08/31 08:00 2.82 ---- 0 73.85 0.89 7.44 1279 12.34
08/31 09:00 2.80 ---- 0 76.77 2.01 7.54 1272 12.43
08/31 10:00 2.81 ---- 0 80.15 6.63 7.77 1281 12.40
08/31 11:00 2.81 ---- 0 81.99 6.35 7.73 1276 12.45
08/31 12:00 2.80 ---- 0 86.02 8.84 7.83 1271 12.46
08/31 13:00 2.79 ---- 0 88.68 10.81 8.07 1268 12.47
08/31 14:00 2.78 ---- 0 89.42 11.76 8.20 1271 13.06
08/31 15:00 2.77 ---- 0 85.05 8.69 8.11 1279 12.93
08/31 16:00 2.77 ---- 0 82.62 7.35 8.11 1287 12.80
08/31 17:00 2.76 ---- 0 81.93 4.90 7.99 1295 12.70
08/31 18:00 2.76 ---- 0 84.70 8.78 8.27 1294 12.56
08/31 19:00 2.76 ---- 0 81.57 6.51 8.16 1308 12.57
08/31 20:00 2.76 ---- 0 80.20 2.82 7.97 1323 12.53
08/31 21:00 2.76 ---- 0 78.85 1.51 7.75 1335 12.53
08/31 22:00 2.76 ---- 0 77.54 1.14 7.63 1342 12.53
08/31 23:00 2.77 ---- 0 76.60 1.17 7.56 1328 12.50
Data processed at Tue 01Sep2026 04:25 GMT

NOTICE: If you are parsing this page

Please convert to using our Data API. Starting early 2026 we will be migrating to: https://water.usace.army.mil with modern pages rendered in JavaScript. When this migration completes you will no longer be able to scrape this page! CWMSDataAPI (CDA)

Timeseries IDs (TSIDs)

TSIDs used from left to right in the data table
CALU.Stage.Inst.1Hour.0.Ccp-Rev
CALU.Stage-Alt.Inst.1Hour.0.Ccp-Rev
CALU.Flow.Inst.1Hour.0.Ccp-Rev
CALU.Temp-Water.Inst.1Hour.0.Ccp-Rev
CALU.Conc-DO.Inst.1Hour.0.Ccp-Rev
CALU.pH.Inst.1Hour.0.Ccp-Rev
CALU.Cond-Water.Inst.1Hour.0.Ccp-Rev
CALU.Volt-Battery Load.Inst.1Hour.0.Ccp-Rev

                            

All information presented herein is the property of the government of the United States of America and may be revised or deleted at any time without prior notice. Dissemination of this information without the expressed written consent of the Public Affairs Office, Tulsa District U.S. Army Corps of Engineers is strictly prohibited. These data are gathered electronically and, as presented, have NOT undergone any form of quality control. These data are NOT guaranteed to be valid or correct.